createdAt,value
2022-10-04T00:00:47.740Z,100134.98
2022-10-04T00:04:28.596Z,100139.46
2022-10-04T00:07:36.001Z,100139.52
2022-10-04T00:10:38.907Z,100137.85
2022-10-04T00:13:49.559Z,100136.27
2022-10-04T00:16:53.553Z,100138.45
2022-10-04T00:19:56.555Z,100139.46
2022-10-04T00:23:26.458Z,100137.46
2022-10-04T00:26:29.328Z,100140.84
2022-10-04T00:29:39.005Z,100137.48
2022-10-04T00:32:41.808Z,100135.38
2022-10-04T00:35:44.692Z,100130.63
2022-10-04T00:39:03.994Z,100130.05
2022-10-04T00:42:13.700Z,100138.40
2022-10-04T00:45:25.082Z,100127.00
2022-10-04T00:48:45.199Z,100138.41
2022-10-04T00:51:57.822Z,100137.83
2022-10-04T00:55:07.182Z,100131.20
2022-10-04T00:58:20.536Z,100133.05
2022-10-04T01:01:26.669Z,100130.27
2022-10-04T01:04:39.152Z,100131.04
2022-10-04T01:07:46.877Z,100128.84
2022-10-04T01:10:58.140Z,100124.00
2022-10-04T01:14:45.374Z,100118.98
2022-10-04T01:18:09.562Z,100117.31
2022-10-04T01:21:21.472Z,100123.48
2022-10-04T01:24:24.484Z,100125.18
2022-10-04T01:27:47.570Z,100115.52
2022-10-04T01:30:50.929Z,100123.09
2022-10-04T01:33:57.651Z,100129.75
2022-10-04T01:37:01.241Z,100121.09
2022-10-04T01:40:04.510Z,100114.47
2022-10-04T01:43:11.454Z,100119.31
2022-10-04T01:46:23.949Z,100112.15
2022-10-04T01:49:32.636Z,100118.34
2022-10-04T01:52:49.038Z,100115.94
2022-10-04T01:55:55.894Z,100113.49
2022-10-04T01:59:02.731Z,100111.20
2022-10-04T02:02:49.509Z,100110.29
2022-10-04T02:05:56.880Z,100114.64
2022-10-04T02:09:02.192Z,100114.21
2022-10-04T02:12:06.373Z,100111.16
2022-10-04T02:15:11.678Z,100112.19
2022-10-04T02:18:21.374Z,100108.88
2022-10-04T02:21:24.756Z,100110.89
2022-10-04T02:24:35.718Z,100111.55
2022-10-04T02:27:38.586Z,100109.83
2022-10-04T02:31:06.139Z,100108.67
2022-10-04T02:34:09.353Z,100100.33
2022-10-04T02:37:12.712Z,100104.45
2022-10-04T02:40:20.024Z,100105.78
2022-10-04T02:43:27.861Z,100112.29
2022-10-04T02:46:45.007Z,100110.27
2022-10-04T02:49:53.315Z,100112.41
2022-10-04T02:53:10.474Z,100118.81
2022-10-04T02:56:13.947Z,100126.38
2022-10-04T02:59:18.131Z,100123.43
2022-10-04T03:02:31.385Z,100120.34
2022-10-04T03:05:34.951Z,100123.70
2022-10-04T03:08:43.718Z,100119.48
2022-10-04T03:11:47.978Z,100114.20
2022-10-04T03:14:53.852Z,100115.52
2022-10-04T03:17:56.903Z,100115.18
2022-10-04T03:21:05.230Z,100120.66
2022-10-04T03:24:15.537Z,100119.23
2022-10-04T03:27:29.199Z,100123.19
2022-10-04T03:31:28.722Z,100119.60
2022-10-04T03:34:38.521Z,100125.83
2022-10-04T03:37:42.005Z,100128.63
2022-10-04T03:40:53.371Z,100131.48
2022-10-04T03:43:58.567Z,100132.95
2022-10-04T03:47:54.474Z,100132.59
2022-10-04T03:50:58.868Z,100134.06
2022-10-04T03:54:03.476Z,100135.84
2022-10-04T03:57:06.810Z,100133.40
2022-10-04T04:00:17.153Z,100139.13
2022-10-04T04:03:21.278Z,100134.42
2022-10-04T04:06:29.446Z,100127.39
2022-10-04T04:09:41.622Z,100125.73
2022-10-04T04:12:52.845Z,100126.30
2022-10-04T04:15:57.130Z,100129.37
2022-10-04T04:19:02.966Z,100126.38
2022-10-04T04:22:06.035Z,100142.29
2022-10-04T04:25:16.205Z,100137.99
2022-10-04T04:28:27.130Z,100142.05
2022-10-04T04:31:58.051Z,100137.92
2022-10-04T04:35:07.333Z,100130.40
2022-10-04T04:38:26.255Z,100130.05
2022-10-04T04:41:33.528Z,100142.69
2022-10-04T04:44:47.821Z,100137.08
2022-10-04T04:47:53.322Z,100146.04
2022-10-04T04:50:58.236Z,100144.29
2022-10-04T04:54:05.288Z,100146.17
2022-10-04T04:57:08.658Z,100141.77
2022-10-04T05:00:18.593Z,100142.58
2022-10-04T05:03:21.859Z,100145.10
2022-10-04T05:06:29.108Z,100143.10
2022-10-04T05:09:37.353Z,100150.70
2022-10-04T05:12:40.470Z,100158.50
2022-10-04T05:15:44.204Z,100158.92
2022-10-04T05:18:48.058Z,100165.09
2022-10-04T05:21:54.052Z,100162.23
2022-10-04T05:25:03.157Z,100170.76
2022-10-04T05:28:06.410Z,100171.13
2022-10-04T05:31:27.990Z,100167.30
2022-10-04T05:34:37.310Z,100176.24
2022-10-04T05:37:51.618Z,100183.65
2022-10-04T05:41:08.003Z,100186.17
2022-10-04T05:44:26.691Z,100183.98
2022-10-04T05:47:31.062Z,100191.77
2022-10-04T05:50:40.783Z,100191.19
2022-10-04T05:53:44.324Z,100191.17
2022-10-04T05:57:24.588Z,100197.09
2022-10-04T06:00:57.206Z,100199.58
2022-10-04T06:04:00.302Z,100202.67
2022-10-04T06:07:41.543Z,100203.77
2022-10-04T06:10:57.880Z,100208.84
2022-10-04T06:14:09.444Z,100204.52
2022-10-04T06:17:29.440Z,100212.42
2022-10-04T06:21:02.708Z,100207.89
2022-10-04T06:24:17.358Z,100208.00
2022-10-04T06:27:25.740Z,100213.16
2022-10-04T06:30:39.626Z,100214.67
2022-10-04T06:34:00.906Z,100214.60
2022-10-04T06:37:19.099Z,100216.90
2022-10-04T06:40:40.616Z,100218.17
2022-10-04T06:44:31.038Z,100216.82
2022-10-04T06:47:37.476Z,100219.07
2022-10-04T06:51:16.120Z,100227.27
2022-10-04T06:54:40.843Z,100235.52
2022-10-04T06:58:15.370Z,100235.47
2022-10-04T07:01:24.436Z,100239.45
2022-10-04T07:05:07.124Z,100242.66
2022-10-04T07:08:34.406Z,100253.55
2022-10-04T07:11:51.403Z,100256.53
2022-10-04T07:15:00.531Z,100255.12
2022-10-04T07:18:09.147Z,100260.16
2022-10-04T07:21:16.797Z,100263.16
2022-10-04T07:24:27.313Z,100266.45
2022-10-04T07:28:15.171Z,100278.27
2022-10-04T07:31:28.247Z,100271.98
2022-10-04T07:34:36.872Z,100270.31
2022-10-04T07:37:58.267Z,100274.04
2022-10-04T07:41:03.465Z,100271.15
2022-10-04T07:44:44.975Z,100280.03
2022-10-04T07:47:48.351Z,100296.55
2022-10-04T07:51:15.970Z,100276.76
2022-10-04T07:54:18.762Z,100278.11
2022-10-04T07:57:40.804Z,100281.22
2022-10-04T08:01:05.093Z,100284.45
2022-10-04T08:04:11.001Z,100291.94
2022-10-04T08:07:21.453Z,100293.02
2022-10-04T08:10:35.632Z,100300.09
2022-10-04T08:13:51.517Z,100303.95
2022-10-04T08:17:06.133Z,100307.14
2022-10-04T08:20:25.911Z,100309.95
2022-10-04T08:24:07.577Z,100315.14
2022-10-04T08:27:29.770Z,100325.02
2022-10-04T08:30:52.952Z,100328.30
2022-10-04T08:34:21.602Z,100322.48
2022-10-04T08:37:53.915Z,100328.45
2022-10-04T08:41:35.383Z,100337.63
2022-10-04T08:45:02.308Z,100348.47
2022-10-04T08:48:12.905Z,100334.40
2022-10-04T08:51:54.165Z,100333.90
2022-10-04T08:55:38.874Z,100337.74
2022-10-04T08:58:49.093Z,100340.15
2022-10-04T09:02:25.150Z,100341.79
2022-10-04T09:06:05.560Z,100340.91
2022-10-04T09:09:27.800Z,100343.71
2022-10-04T09:12:44.907Z,100334.23
2022-10-04T09:16:15.101Z,100336.15
2022-10-04T09:19:40.950Z,100341.73
2022-10-04T09:22:57.327Z,100351.45
2022-10-04T09:26:15.610Z,100347.42
2022-10-04T09:29:54.630Z,100355.10
2022-10-04T09:33:15.554Z,100362.64
2022-10-04T09:36:41.627Z,100351.40
2022-10-04T09:39:44.722Z,100355.37
2022-10-04T09:43:12.575Z,100346.69
2022-10-04T09:46:30.388Z,100352.69
2022-10-04T09:49:59.015Z,100373.49
2022-10-04T09:53:07.588Z,100366.24
2022-10-04T09:56:42.504Z,100370.03
2022-10-04T10:00:14.561Z,100366.80
2022-10-04T10:03:50.338Z,100363.23
2022-10-04T10:07:22.559Z,100363.16
2022-10-04T10:10:56.311Z,100363.36
2022-10-04T10:14:24.268Z,100359.75
2022-10-04T10:17:41.597Z,100368.69
2022-10-04T10:21:10.662Z,100372.61
2022-10-04T10:24:44.102Z,100373.63
2022-10-04T10:27:57.569Z,100380.11
2022-10-04T10:31:31.903Z,100383.82
2022-10-04T10:34:57.113Z,100374.93
2022-10-04T10:38:19.696Z,100372.16
2022-10-04T10:41:49.636Z,100371.98
2022-10-04T10:45:16.247Z,100379.74
2022-10-04T10:48:35.557Z,100375.33
2022-10-04T10:52:15.925Z,100388.46
2022-10-04T10:55:44.816Z,100377.04
2022-10-04T10:59:17.846Z,100376.04
2022-10-04T11:02:50.016Z,100379.78
2022-10-04T11:06:15.141Z,100384.00
2022-10-04T11:09:39.161Z,100379.42
2022-10-04T11:13:08.178Z,100388.55
2022-10-04T11:16:54.741Z,100388.95
2022-10-04T11:20:18.547Z,100392.35
2022-10-04T11:23:44.246Z,100386.06
2022-10-04T11:27:06.395Z,100383.92
2022-10-04T11:30:15.138Z,100394.96
2022-10-04T11:33:39.753Z,100382.37
2022-10-04T11:37:18.103Z,100379.23
2022-10-04T11:40:47.482Z,100378.92
2022-10-04T11:44:19.196Z,100373.80
2022-10-04T11:47:31.948Z,100370.84
2022-10-04T11:50:49.364Z,100364.02
2022-10-04T11:54:13.282Z,100365.95
2022-10-04T11:57:31.319Z,100371.75
2022-10-04T12:00:53.792Z,100368.26
2022-10-04T12:04:09.041Z,100367.00
2022-10-04T12:07:24.399Z,100363.58
2022-10-04T12:10:40.654Z,100364.25
2022-10-04T12:13:46.391Z,100359.65
2022-10-04T12:17:08.749Z,100358.39
2022-10-04T12:20:30.060Z,100339.89
2022-10-04T12:24:00.302Z,100349.20
2022-10-04T12:27:22.049Z,100341.61
2022-10-04T12:31:08.137Z,100343.06
2022-10-04T12:34:14.835Z,100353.06
2022-10-04T12:37:41.052Z,100343.89
2022-10-04T12:40:53.389Z,100346.27
2022-10-04T12:44:37.692Z,100351.88
2022-10-04T12:48:20.981Z,100344.34
2022-10-04T12:52:14.310Z,100344.13
2022-10-04T12:55:35.746Z,100343.34
2022-10-04T12:59:12.213Z,100344.44
2022-10-04T13:02:36.636Z,100349.25
2022-10-04T13:06:07.327Z,100350.96
2022-10-04T13:09:19.173Z,100351.13
2022-10-04T13:12:29.884Z,100351.19
2022-10-04T13:19:38.111Z,100350.42
2022-10-04T13:23:01.803Z,100351.83
2022-10-04T13:26:23.838Z,100348.73
2022-10-04T13:29:42.906Z,100356.95
2022-10-04T13:32:53.175Z,100360.00
2022-10-04T13:36:08.381Z,100356.59
2022-10-04T13:39:36.012Z,100358.17
2022-10-04T13:43:08.506Z,100358.82
2022-10-04T13:46:48.851Z,100355.98
2022-10-04T13:49:58.171Z,100361.60
2022-10-04T13:53:44.614Z,100353.80
2022-10-04T13:57:07.123Z,100348.48
2022-10-04T14:00:35.025Z,100352.16
2022-10-04T14:04:08.392Z,100350.14
2022-10-04T14:07:34.774Z,100349.89
2022-10-04T14:11:02.853Z,100346.31
2022-10-04T14:14:33.307Z,100344.38
2022-10-04T14:18:01.491Z,100350.80
2022-10-04T14:21:19.363Z,100346.63
2022-10-04T14:24:39.169Z,100342.14
2022-10-04T14:28:00.423Z,100344.54
2022-10-04T14:31:47.238Z,100346.81
2022-10-04T14:35:16.340Z,100343.53
2022-10-04T14:38:53.922Z,100338.10
2022-10-04T14:42:44.511Z,100336.79
2022-10-04T14:46:07.268Z,100335.49
2022-10-04T14:49:51.626Z,100338.88
2022-10-04T14:53:32.349Z,100332.24
2022-10-04T14:56:45.421Z,100326.02
2022-10-04T15:00:12.594Z,100328.06
2022-10-04T15:03:29.607Z,100326.38
2022-10-04T15:06:40.331Z,100328.16
2022-10-04T15:09:47.075Z,100331.77
2022-10-04T15:13:18.151Z,100336.19
2022-10-04T15:16:53.690Z,100328.41
2022-10-04T15:20:20.927Z,100329.38
2022-10-04T15:23:35.246Z,100329.98
2022-10-04T15:26:48.350Z,100331.16
2022-10-04T15:30:30.860Z,100334.48
2022-10-04T15:34:02.246Z,100333.52
2022-10-04T15:37:28.274Z,100335.21
2022-10-04T15:40:48.246Z,100332.36
2022-10-04T15:44:12.924Z,100332.63
2022-10-04T15:47:25.200Z,100335.13
2022-10-04T15:51:02.281Z,100331.91
2022-10-04T15:54:40.406Z,100332.63
2022-10-04T15:57:55.524Z,100330.80
2022-10-04T16:01:20.568Z,100327.20
2022-10-04T16:04:26.039Z,100330.92
2022-10-04T16:07:40.678Z,100325.20
2022-10-04T16:11:07.131Z,100327.91
2022-10-04T16:14:37.799Z,100322.98
2022-10-04T16:18:05.426Z,100319.30
2022-10-04T16:21:37.230Z,100320.83
2022-10-04T16:24:45.782Z,100327.19
2022-10-04T16:27:57.391Z,100327.69
2022-10-04T16:31:14.483Z,100324.27
2022-10-04T16:34:45.438Z,100321.36
2022-10-04T16:38:13.045Z,100329.17
2022-10-04T16:41:33.655Z,100334.91
2022-10-04T16:44:52.136Z,100333.08
2022-10-04T16:48:00.249Z,100334.65
2022-10-04T16:51:23.614Z,100334.27
2022-10-04T16:54:58.178Z,100340.36
2022-10-04T16:58:41.489Z,100345.55
2022-10-04T17:02:28.423Z,100349.52
2022-10-04T17:05:47.403Z,100348.24
2022-10-04T17:09:06.962Z,100348.89
2022-10-04T17:12:35.585Z,100355.46
2022-10-04T17:15:44.414Z,100359.10
2022-10-04T17:19:20.780Z,100360.14
2022-10-04T17:22:34.259Z,100356.73
2022-10-04T17:25:48.322Z,100355.59
2022-10-04T17:28:58.359Z,100352.81
2022-10-04T17:32:16.396Z,100347.78
2022-10-04T17:35:23.502Z,100349.32
2022-10-04T17:38:29.991Z,100359.49
2022-10-04T17:42:27.682Z,100355.15
2022-10-04T17:45:51.250Z,100348.03
2022-10-04T17:49:21.892Z,100345.58
2022-10-04T17:52:52.688Z,100341.73
2022-10-04T17:55:58.066Z,100344.95
2022-10-04T17:59:12.605Z,100343.70
2022-10-04T18:02:45.664Z,100346.05
2022-10-04T18:05:58.351Z,100349.28
2022-10-04T18:09:10.966Z,100348.21
2022-10-04T18:12:26.611Z,100347.60
2022-10-04T18:15:38.845Z,100340.33
2022-10-04T18:18:47.451Z,100339.70
2022-10-04T18:21:54.703Z,100339.71
2022-10-04T18:25:21.455Z,100345.36
2022-10-04T18:28:25.612Z,100349.20
2022-10-04T18:31:40.454Z,100355.31
2022-10-04T18:34:43.654Z,100359.27
2022-10-04T18:37:46.926Z,100359.73
2022-10-04T18:41:04.601Z,100363.45
2022-10-04T18:44:15.726Z,100365.80
2022-10-04T18:47:31.847Z,100361.23
2022-10-04T18:50:46.969Z,100353.59
2022-10-04T18:54:16.779Z,100355.02
2022-10-04T18:57:27.103Z,100357.75
2022-10-04T19:01:04.177Z,100355.70
2022-10-04T19:04:17.377Z,100349.45
2022-10-04T19:07:36.919Z,100348.20
2022-10-04T19:10:52.531Z,100343.73
2022-10-04T19:14:34.737Z,100337.33
2022-10-04T19:18:19.920Z,100349.02
2022-10-04T19:21:29.220Z,100343.55
2022-10-04T19:24:49.008Z,100342.16
2022-10-04T19:28:01.006Z,100339.64
2022-10-04T19:31:26.498Z,100345.69
2022-10-04T19:34:57.482Z,100349.98
2022-10-04T19:38:10.176Z,100347.08
2022-10-04T19:41:45.271Z,100344.52
2022-10-04T19:44:52.670Z,100334.73
2022-10-04T19:48:01.818Z,100333.16
2022-10-04T19:51:09.322Z,100335.88
2022-10-04T19:54:22.670Z,100335.13
2022-10-04T19:57:37.366Z,100340.45
2022-10-04T20:00:40.564Z,100333.94
2022-10-04T20:03:46.801Z,100336.55
2022-10-04T20:06:56.369Z,100343.36
2022-10-04T20:10:28.981Z,100345.77
2022-10-04T20:13:34.558Z,100339.61
2022-10-04T20:16:48.368Z,100344.63
2022-10-04T20:19:52.340Z,100343.79
2022-10-04T20:22:57.201Z,100341.52
2022-10-04T20:26:00.927Z,100345.27
2022-10-04T20:29:05.227Z,100348.77
2022-10-04T20:32:12.808Z,100353.14
2022-10-04T20:35:54.702Z,100361.86
2022-10-04T20:39:00.144Z,100361.45
2022-10-04T20:42:21.719Z,100371.02
2022-10-04T20:45:27.661Z,100380.80
2022-10-04T20:48:37.563Z,100390.27
2022-10-04T20:51:47.964Z,100388.48
2022-10-04T20:54:54.506Z,100383.88
2022-10-04T20:58:03.651Z,100384.10
2022-10-04T21:01:36.925Z,100392.90
2022-10-04T21:04:44.820Z,100390.66
2022-10-04T21:07:47.749Z,100390.48
2022-10-04T21:11:08.620Z,100388.73
2022-10-04T21:14:26.570Z,100387.65
2022-10-04T21:17:29.337Z,100386.27
2022-10-04T21:20:43.505Z,100385.27
2022-10-04T21:23:46.733Z,100384.05
2022-10-04T21:26:59.449Z,100381.20
2022-10-04T21:30:05.897Z,100381.05
2022-10-04T21:33:08.766Z,100379.68
2022-10-04T21:36:11.671Z,100378.83
2022-10-04T21:39:14.719Z,100376.29
2022-10-04T21:42:18.222Z,100373.02
2022-10-04T21:45:21.064Z,100374.44
2022-10-04T21:48:24.862Z,100364.37
2022-10-04T21:51:27.660Z,100360.21
2022-10-04T21:54:30.424Z,100350.44
2022-10-04T21:57:35.659Z,100348.38
2022-10-04T22:00:39.083Z,100343.92
2022-10-04T22:03:41.896Z,100349.92
2022-10-04T22:06:45.403Z,100354.76
2022-10-04T22:09:48.390Z,100353.70
2022-10-04T22:12:51.429Z,100357.73
2022-10-04T22:15:55.318Z,100361.90
2022-10-04T22:18:58.355Z,100356.86
2022-10-04T22:22:01.371Z,100354.98
2022-10-04T22:25:13.709Z,100344.86
2022-10-04T22:28:26.852Z,100339.72
2022-10-04T22:31:29.885Z,100333.02
2022-10-04T22:34:32.787Z,100316.35
2022-10-04T22:37:35.729Z,100309.27
2022-10-04T22:40:38.695Z,100306.23
2022-10-04T22:43:41.692Z,100294.72
2022-10-04T22:47:07.066Z,100296.05
2022-10-04T22:50:27.154Z,100291.54
2022-10-04T22:53:30.182Z,100280.80
2022-10-04T22:56:33.187Z,100284.61
2022-10-04T22:59:42.389Z,100279.08
2022-10-04T23:02:45.526Z,100276.35
2022-10-04T23:05:48.652Z,100271.41
2022-10-04T23:08:51.557Z,100269.98
2022-10-04T23:11:54.435Z,100262.92
2022-10-04T23:14:57.196Z,100256.46
2022-10-04T23:18:00.120Z,100253.98
2022-10-04T23:21:03.526Z,100243.77
2022-10-04T23:24:12.527Z,100235.54
2022-10-04T23:27:17.470Z,100235.86
2022-10-04T23:30:22.807Z,100238.22
2022-10-04T23:33:25.675Z,100253.45
2022-10-04T23:36:28.786Z,100257.84
2022-10-04T23:39:34.926Z,100253.24
2022-10-04T23:42:38.011Z,100252.85
2022-10-04T23:45:44.200Z,100258.96
2022-10-04T23:48:48.552Z,100258.33
2022-10-04T23:51:58.681Z,100254.54
2022-10-04T23:55:02.838Z,100249.65
2022-10-04T23:58:22.299Z,100246.02
